sensor_id;sensor_type;location;lat;lon;timestamp;temperature;humidity
36216;DHT22;22257;52.232;21.084;2022-07-05T00:02:25;21.20;99.90
36216;DHT22;22257;52.232;21.084;2022-07-05T00:04:52;21.10;99.90
36216;DHT22;22257;52.232;21.084;2022-07-05T00:07:18;21.00;99.90
36216;DHT22;22257;52.232;21.084;2022-07-05T00:09:54;20.90;99.90
36216;DHT22;22257;52.232;21.084;2022-07-05T00:12:17;20.80;99.90
36216;DHT22;22257;52.232;21.084;2022-07-05T00:14:44;20.70;99.90
36216;DHT22;22257;52.232;21.084;2022-07-05T00:17:11;20.70;99.90
36216;DHT22;22257;52.232;21.084;2022-07-05T00:19:38;20.60;99.90
36216;DHT22;22257;52.232;21.084;2022-07-05T00:22:05;20.60;99.90
36216;DHT22;22257;52.232;21.084;2022-07-05T00:24:31;20.60;99.90
36216;DHT22;22257;52.232;21.084;2022-07-05T00:26:58;20.50;99.90
36216;DHT22;22257;52.232;21.084;2022-07-05T00:29:24;20.50;99.90
36216;DHT22;22257;52.232;21.084;2022-07-05T00:31:50;20.40;99.90
36216;DHT22;22257;52.232;21.084;2022-07-05T00:34:17;20.40;99.90
36216;DHT22;22257;52.232;21.084;2022-07-05T00:36:43;20.30;99.90
36216;DHT22;22257;52.232;21.084;2022-07-05T00:39:10;20.30;99.90
36216;DHT22;22257;52.232;21.084;2022-07-05T00:41:36;20.20;99.90
36216;DHT22;22257;52.232;21.084;2022-07-05T00:44:06;20.20;99.90
36216;DHT22;22257;52.232;21.084;2022-07-05T00:46:34;20.20;99.90
36216;DHT22;22257;52.232;21.084;2022-07-05T00:49:01;20.20;99.90
36216;DHT22;22257;52.232;21.084;2022-07-05T00:51:30;20.20;99.90
36216;DHT22;22257;52.232;21.084;2022-07-05T00:53:56;20.10;99.90
36216;DHT22;22257;52.232;21.084;2022-07-05T00:56:23;20.20;99.90
36216;DHT22;22257;52.232;21.084;2022-07-05T00:58:51;20.20;99.90
36216;DHT22;22257;52.232;21.084;2022-07-05T01:01:17;20.10;99.90
36216;DHT22;22257;52.232;21.084;2022-07-05T01:03:44;20.10;99.90
36216;DHT22;22257;52.232;21.084;2022-07-05T01:06:12;20.10;99.90
36216;DHT22;22257;52.232;21.084;2022-07-05T01:08:41;20.10;99.90
36216;DHT22;22257;52.232;21.084;2022-07-05T01:11:12;20.20;99.90
36216;DHT22;22257;52.232;21.084;2022-07-05T01:13:39;20.10;99.90
36216;DHT22;22257;52.232;21.084;2022-07-05T01:16:06;20.00;99.90
36216;DHT22;22257;52.232;21.084;2022-07-05T01:18:32;20.00;99.90
36216;DHT22;22257;52.232;21.084;2022-07-05T01:21:00;20.00;99.90
36216;DHT22;22257;52.232;21.084;2022-07-05T01:23:28;19.90;99.90
36216;DHT22;22257;52.232;21.084;2022-07-05T01:25:56;19.90;99.90
36216;DHT22;22257;52.232;21.084;2022-07-05T01:28:25;19.80;99.90
36216;DHT22;22257;52.232;21.084;2022-07-05T01:30:51;19.70;99.90
36216;DHT22;22257;52.232;21.084;2022-07-05T01:33:18;19.60;99.90
36216;DHT22;22257;52.232;21.084;2022-07-05T01:35:45;19.60;99.90
36216;DHT22;22257;52.232;21.084;2022-07-05T01:38:12;19.50;99.90
36216;DHT22;22257;52.232;21.084;2022-07-05T01:40:38;19.40;99.90
36216;DHT22;22257;52.232;21.084;2022-07-05T01:43:04;19.30;99.90
36216;DHT22;22257;52.232;21.084;2022-07-05T01:45:31;19.20;99.90
36216;DHT22;22257;52.232;21.084;2022-07-05T01:48:09;19.10;99.90
36216;DHT22;22257;52.232;21.084;2022-07-05T01:50:48;19.10;99.90
36216;DHT22;22257;52.232;21.084;2022-07-05T01:53:27;19.00;99.90
36216;DHT22;22257;52.232;21.084;2022-07-05T01:55:51;18.90;99.90
36216;DHT22;22257;52.232;21.084;2022-07-05T01:58:18;18.80;99.90
36216;DHT22;22257;52.232;21.084;2022-07-05T02:00:47;18.80;99.90
36216;DHT22;22257;52.232;21.084;2022-07-05T02:03:15;18.70;99.90
36216;DHT22;22257;52.232;21.084;2022-07-05T02:05:43;18.70;99.90
36216;DHT22;22257;52.232;21.084;2022-07-05T02:08:09;18.70;99.90
36216;DHT22;22257;52.232;21.084;2022-07-05T02:10:37;18.70;99.90
36216;DHT22;22257;52.232;21.084;2022-07-05T02:13:04;18.60;99.90
36216;DHT22;22257;52.232;21.084;2022-07-05T02:15:32;18.50;99.90
36216;DHT22;22257;52.232;21.084;2022-07-05T02:17:58;18.40;99.90
36216;DHT22;22257;52.232;21.084;2022-07-05T02:20:25;18.40;99.90
36216;DHT22;22257;52.232;21.084;2022-07-05T02:22:51;18.40;99.90
36216;DHT22;22257;52.232;21.084;2022-07-05T02:25:17;18.40;99.90
36216;DHT22;22257;52.232;21.084;2022-07-05T02:27:43;18.40;99.90
36216;DHT22;22257;52.232;21.084;2022-07-05T02:30:10;18.40;99.90
36216;DHT22;22257;52.232;21.084;2022-07-05T02:32:36;18.40;99.90
36216;DHT22;22257;52.232;21.084;2022-07-05T02:35:04;18.40;99.90
36216;DHT22;22257;52.232;21.084;2022-07-05T02:37:31;18.40;99.90
36216;DHT22;22257;52.232;21.084;2022-07-05T02:39:57;18.40;99.90
36216;DHT22;22257;52.232;21.084;2022-07-05T02:42:23;18.40;99.90
36216;DHT22;22257;52.232;21.084;2022-07-05T02:44:49;18.40;99.90
36216;DHT22;22257;52.232;21.084;2022-07-05T02:47:15;18.40;99.90
36216;DHT22;22257;52.232;21.084;2022-07-05T02:49:41;18.40;99.90
36216;DHT22;22257;52.232;21.084;2022-07-05T02:52:07;18.40;99.90
36216;DHT22;22257;52.232;21.084;2022-07-05T02:54:33;18.30;99.90
36216;DHT22;22257;52.232;21.084;2022-07-05T02:57:00;18.30;99.90
36216;DHT22;22257;52.232;21.084;2022-07-05T02:59:26;18.30;99.90
36216;DHT22;22257;52.232;21.084;2022-07-05T03:01:52;18.30;99.90
36216;DHT22;22257;52.232;21.084;2022-07-05T03:04:18;18.20;99.90
36216;DHT22;22257;52.232;21.084;2022-07-05T03:06:44;18.10;99.90
36216;DHT22;22257;52.232;21.084;2022-07-05T03:09:10;18.10;99.90
36216;DHT22;22257;52.232;21.084;2022-07-05T03:11:36;18.10;99.90
36216;DHT22;22257;52.232;21.084;2022-07-05T03:14:03;18.20;99.90
36216;DHT22;22257;52.232;21.084;2022-07-05T03:16:29;18.20;99.90
36216;DHT22;22257;52.232;21.084;2022-07-05T03:18:55;18.20;99.90
36216;DHT22;22257;52.232;21.084;2022-07-05T03:21:21;18.20;99.90
36216;DHT22;22257;52.232;21.084;2022-07-05T03:23:47;18.20;99.90
36216;DHT22;22257;52.232;21.084;2022-07-05T03:26:14;18.30;99.90
36216;DHT22;22257;52.232;21.084;2022-07-05T03:28:40;18.30;99.90
36216;DHT22;22257;52.232;21.084;2022-07-05T03:31:06;18.30;99.90
36216;DHT22;22257;52.232;21.084;2022-07-05T03:33:32;18.40;99.90
36216;DHT22;22257;52.232;21.084;2022-07-05T03:35:58;18.30;99.90
36216;DHT22;22257;52.232;21.084;2022-07-05T03:38:24;18.30;99.90
36216;DHT22;22257;52.232;21.084;2022-07-05T03:40:50;18.20;99.90
36216;DHT22;22257;52.232;21.084;2022-07-05T03:43:16;18.20;99.90
36216;DHT22;22257;52.232;21.084;2022-07-05T03:45:42;18.30;99.90
36216;DHT22;22257;52.232;21.084;2022-07-05T03:48:08;18.30;99.90
36216;DHT22;22257;52.232;21.084;2022-07-05T03:50:35;18.40;99.90
36216;DHT22;22257;52.232;21.084;2022-07-05T03:53:00;18.40;99.90
36216;DHT22;22257;52.232;21.084;2022-07-05T03:55:27;18.40;99.90
36216;DHT22;22257;52.232;21.084;2022-07-05T03:57:53;18.40;99.90
36216;DHT22;22257;52.232;21.084;2022-07-05T04:00:19;18.40;99.90
36216;DHT22;22257;52.232;21.084;2022-07-05T04:02:45;18.50;99.90
36216;DHT22;22257;52.232;21.084;2022-07-05T04:05:11;18.40;99.90
36216;DHT22;22257;52.232;21.084;2022-07-05T04:10:17;18.20;99.90
36216;DHT22;22257;52.232;21.084;2022-07-05T04:12:43;18.30;99.90
36216;DHT22;22257;52.232;21.084;2022-07-05T04:15:10;18.30;99.90
36216;DHT22;22257;52.232;21.084;2022-07-05T04:17:47;18.30;99.90
36216;DHT22;22257;52.232;21.084;2022-07-05T04:20:07;18.40;99.90
36216;DHT22;22257;52.232;21.084;2022-07-05T04:22:34;18.40;99.90
36216;DHT22;22257;52.232;21.084;2022-07-05T04:25:00;18.50;99.90
36216;DHT22;22257;52.232;21.084;2022-07-05T04:27:52;18.50;99.90
36216;DHT22;22257;52.232;21.084;2022-07-05T04:30:17;18.50;99.90
36216;DHT22;22257;52.232;21.084;2022-07-05T04:32:45;18.50;99.90
36216;DHT22;22257;52.232;21.084;2022-07-05T04:35:12;18.50;99.90
36216;DHT22;22257;52.232;21.084;2022-07-05T04:37:38;18.60;99.90
36216;DHT22;22257;52.232;21.084;2022-07-05T04:40:07;18.80;99.90
36216;DHT22;22257;52.232;21.084;2022-07-05T04:42:33;18.80;99.90
36216;DHT22;22257;52.232;21.084;2022-07-05T04:44:59;18.90;99.90
36216;DHT22;22257;52.232;21.084;2022-07-05T04:47:25;19.00;99.90
36216;DHT22;22257;52.232;21.084;2022-07-05T04:49:52;19.20;99.90
36216;DHT22;22257;52.232;21.084;2022-07-05T04:52:19;19.20;99.90
36216;DHT22;22257;52.232;21.084;2022-07-05T04:54:45;19.20;99.90
36216;DHT22;22257;52.232;21.084;2022-07-05T04:57:11;19.20;99.90
36216;DHT22;22257;52.232;21.084;2022-07-05T04:59:37;19.20;99.90
36216;DHT22;22257;52.232;21.084;2022-07-05T05:02:04;19.30;99.90
36216;DHT22;22257;52.232;21.084;2022-07-05T05:04:30;19.40;99.90
36216;DHT22;22257;52.232;21.084;2022-07-05T05:06:57;19.40;99.90
36216;DHT22;22257;52.232;21.084;2022-07-05T05:09:23;19.30;99.90
36216;DHT22;22257;52.232;21.084;2022-07-05T05:11:49;19.30;99.90
36216;DHT22;22257;52.232;21.084;2022-07-05T05:14:15;19.20;99.90
36216;DHT22;22257;52.232;21.084;2022-07-05T05:16:41;19.30;99.90
36216;DHT22;22257;52.232;21.084;2022-07-05T05:19:07;19.40;99.90
36216;DHT22;22257;52.232;21.084;2022-07-05T05:21:33;19.40;99.90
36216;DHT22;22257;52.232;21.084;2022-07-05T05:23:59;19.50;99.90
36216;DHT22;22257;52.232;21.084;2022-07-05T05:26:26;19.60;99.90
36216;DHT22;22257;52.232;21.084;2022-07-05T05:28:53;19.70;99.90
36216;DHT22;22257;52.232;21.084;2022-07-05T05:31:19;19.80;99.90
36216;DHT22;22257;52.232;21.084;2022-07-05T05:33:45;19.90;99.90
36216;DHT22;22257;52.232;21.084;2022-07-05T05:36:12;19.90;99.90
36216;DHT22;22257;52.232;21.084;2022-07-05T05:38:38;20.00;99.90
36216;DHT22;22257;52.232;21.084;2022-07-05T05:41:05;20.00;99.90
36216;DHT22;22257;52.232;21.084;2022-07-05T05:43:31;20.00;99.90
36216;DHT22;22257;52.232;21.084;2022-07-05T05:45:57;19.90;99.90
36216;DHT22;22257;52.232;21.084;2022-07-05T05:48:23;19.90;99.90
36216;DHT22;22257;52.232;21.084;2022-07-05T05:50:49;19.90;99.90
36216;DHT22;22257;52.232;21.084;2022-07-05T05:53:17;20.00;99.90
36216;DHT22;22257;52.232;21.084;2022-07-05T05:55:43;20.20;99.90
36216;DHT22;22257;52.232;21.084;2022-07-05T05:58:14;20.20;99.90
36216;DHT22;22257;52.232;21.084;2022-07-05T06:00:42;20.20;99.90
36216;DHT22;22257;52.232;21.084;2022-07-05T06:03:09;20.10;99.90
36216;DHT22;22257;52.232;21.084;2022-07-05T06:05:35;20.00;99.90
36216;DHT22;22257;52.232;21.084;2022-07-05T06:08:02;19.80;99.90
36216;DHT22;22257;52.232;21.084;2022-07-05T06:10:32;19.90;99.90
36216;DHT22;22257;52.232;21.084;2022-07-05T06:13:04;19.90;99.90
36216;DHT22;22257;52.232;21.084;2022-07-05T06:15:31;20.00;99.90
36216;DHT22;22257;52.232;21.084;2022-07-05T06:17:57;20.20;99.90
36216;DHT22;22257;52.232;21.084;2022-07-05T06:20:28;20.20;99.90
36216;DHT22;22257;52.232;21.084;2022-07-05T06:22:55;20.30;99.90
36216;DHT22;22257;52.232;21.084;2022-07-05T06:25:22;20.50;99.90
36216;DHT22;22257;52.232;21.084;2022-07-05T06:27:55;20.70;99.90
36216;DHT22;22257;52.232;21.084;2022-07-05T06:30:20;20.70;99.90
36216;DHT22;22257;52.232;21.084;2022-07-05T06:32:47;20.70;99.90
36216;DHT22;22257;52.232;21.084;2022-07-05T06:35:13;20.70;99.90
36216;DHT22;22257;52.232;21.084;2022-07-05T06:37:45;20.50;99.90
36216;DHT22;22257;52.232;21.084;2022-07-05T06:40:15;20.50;99.90
36216;DHT22;22257;52.232;21.084;2022-07-05T06:42:41;20.50;99.90
36216;DHT22;22257;52.232;21.084;2022-07-05T06:45:08;20.60;99.90
36216;DHT22;22257;52.232;21.084;2022-07-05T06:47:35;20.70;99.90
36216;DHT22;22257;52.232;21.084;2022-07-05T06:50:01;20.80;99.90
36216;DHT22;22257;52.232;21.084;2022-07-05T06:52:31;21.00;99.90
36216;DHT22;22257;52.232;21.084;2022-07-05T06:54:59;21.20;99.90
36216;DHT22;22257;52.232;21.084;2022-07-05T06:57:25;21.20;99.90
36216;DHT22;22257;52.232;21.084;2022-07-05T06:59:52;21.40;99.90
36216;DHT22;22257;52.232;21.084;2022-07-05T07:02:18;21.70;99.90
36216;DHT22;22257;52.232;21.084;2022-07-05T07:04:49;21.90;99.90
36216;DHT22;22257;52.232;21.084;2022-07-05T07:07:15;22.10;99.90
36216;DHT22;22257;52.232;21.084;2022-07-05T07:10:02;22.20;99.90
36216;DHT22;22257;52.232;21.084;2022-07-05T07:12:28;22.20;99.90
36216;DHT22;22257;52.232;21.084;2022-07-05T07:14:57;22.00;99.90
36216;DHT22;22257;52.232;21.084;2022-07-05T07:17:24;22.00;99.90
36216;DHT22;22257;52.232;21.084;2022-07-05T07:19:51;22.10;99.90
36216;DHT22;22257;52.232;21.084;2022-07-05T07:22:17;22.20;99.90
36216;DHT22;22257;52.232;21.084;2022-07-05T07:24:43;22.40;99.90
36216;DHT22;22257;52.232;21.084;2022-07-05T07:27:09;22.70;99.90
36216;DHT22;22257;52.232;21.084;2022-07-05T07:29:37;22.80;99.90
36216;DHT22;22257;52.232;21.084;2022-07-05T07:32:05;22.90;99.90
36216;DHT22;22257;52.232;21.084;2022-07-05T07:34:32;23.20;99.90
36216;DHT22;22257;52.232;21.084;2022-07-05T07:36:59;23.10;99.90
36216;DHT22;22257;52.232;21.084;2022-07-05T07:39:26;22.90;99.90
36216;DHT22;22257;52.232;21.084;2022-07-05T07:41:53;22.90;99.90
36216;DHT22;22257;52.232;21.084;2022-07-05T07:44:19;23.00;99.90
36216;DHT22;22257;52.232;21.084;2022-07-05T07:46:45;23.00;99.90
36216;DHT22;22257;52.232;21.084;2022-07-05T07:49:12;23.20;99.90
36216;DHT22;22257;52.232;21.084;2022-07-05T07:51:39;23.30;99.90
36216;DHT22;22257;52.232;21.084;2022-07-05T07:54:06;23.10;99.90
36216;DHT22;22257;52.232;21.084;2022-07-05T07:56:32;23.00;99.90
36216;DHT22;22257;52.232;21.084;2022-07-05T07:58:58;23.30;99.90
36216;DHT22;22257;52.232;21.084;2022-07-05T08:01:24;23.40;99.90
36216;DHT22;22257;52.232;21.084;2022-07-05T08:03:50;23.60;99.90
36216;DHT22;22257;52.232;21.084;2022-07-05T08:06:17;23.80;99.90
36216;DHT22;22257;52.232;21.084;2022-07-05T08:08:44;23.80;99.90
36216;DHT22;22257;52.232;21.084;2022-07-05T08:11:11;24.20;99.90
36216;DHT22;22257;52.232;21.084;2022-07-05T08:13:38;24.40;99.90
36216;DHT22;22257;52.232;21.084;2022-07-05T08:16:07;24.30;99.90
36216;DHT22;22257;52.232;21.084;2022-07-05T08:18:34;24.10;99.90
36216;DHT22;22257;52.232;21.084;2022-07-05T08:21:19;24.10;99.90
36216;DHT22;22257;52.232;21.084;2022-07-05T08:24:03;24.40;99.90
36216;DHT22;22257;52.232;21.084;2022-07-05T08:26:29;24.60;99.90
36216;DHT22;22257;52.232;21.084;2022-07-05T08:28:59;24.70;99.90
36216;DHT22;22257;52.232;21.084;2022-07-05T08:31:31;24.70;99.90
36216;DHT22;22257;52.232;21.084;2022-07-05T08:33:58;24.70;99.90
36216;DHT22;22257;52.232;21.084;2022-07-05T08:36:24;24.80;99.90
36216;DHT22;22257;52.232;21.084;2022-07-05T08:38:51;24.90;99.90
36216;DHT22;22257;52.232;21.084;2022-07-05T08:41:19;25.10;99.90
36216;DHT22;22257;52.232;21.084;2022-07-05T08:43:48;25.20;99.90
36216;DHT22;22257;52.232;21.084;2022-07-05T08:46:16;25.10;99.90
36216;DHT22;22257;52.232;21.084;2022-07-05T08:48:44;24.90;99.90
36216;DHT22;22257;52.232;21.084;2022-07-05T08:51:13;25.20;99.90
36216;DHT22;22257;52.232;21.084;2022-07-05T08:53:40;25.20;99.90
36216;DHT22;22257;52.232;21.084;2022-07-05T08:56:08;25.30;99.90
36216;DHT22;22257;52.232;21.084;2022-07-05T08:58:35;25.10;99.90
36216;DHT22;22257;52.232;21.084;2022-07-05T09:01:02;25.10;99.90
36216;DHT22;22257;52.232;21.084;2022-07-05T09:06:09;25.00;99.90
36216;DHT22;22257;52.232;21.084;2022-07-05T09:08:37;25.30;99.90
36216;DHT22;22257;52.232;21.084;2022-07-05T09:11:08;25.70;99.90
36216;DHT22;22257;52.232;21.084;2022-07-05T09:13:37;25.90;99.90
36216;DHT22;22257;52.232;21.084;2022-07-05T09:16:04;26.10;99.90
36216;DHT22;22257;52.232;21.084;2022-07-05T09:18:48;26.10;99.90
36216;DHT22;22257;52.232;21.084;2022-07-05T09:21:20;26.10;99.90
36216;DHT22;22257;52.232;21.084;2022-07-05T09:23:58;25.80;99.90
36216;DHT22;22257;52.232;21.084;2022-07-05T09:26:42;25.60;99.90
36216;DHT22;22257;52.232;21.084;2022-07-05T09:29:16;25.60;99.90
36216;DHT22;22257;52.232;21.084;2022-07-05T09:31:45;26.10;99.90
36216;DHT22;22257;52.232;21.084;2022-07-05T09:34:13;26.20;99.90
36216;DHT22;22257;52.232;21.084;2022-07-05T09:37:01;26.10;99.90
36216;DHT22;22257;52.232;21.084;2022-07-05T09:44:48;26.40;99.90
36216;DHT22;22257;52.232;21.084;2022-07-05T09:47:18;26.70;99.90
36216;DHT22;22257;52.232;21.084;2022-07-05T09:49:50;26.70;99.90
36216;DHT22;22257;52.232;21.084;2022-07-05T09:52:31;26.20;99.90
36216;DHT22;22257;52.232;21.084;2022-07-05T09:57:38;26.30;99.90
36216;DHT22;22257;52.232;21.084;2022-07-05T10:05:24;26.00;99.90
36216;DHT22;22257;52.232;21.084;2022-07-05T10:07:52;26.10;99.90
36216;DHT22;22257;52.232;21.084;2022-07-05T10:10:21;26.10;99.90
36216;DHT22;22257;52.232;21.084;2022-07-05T10:12:50;26.00;99.90
36216;DHT22;22257;52.232;21.084;2022-07-05T10:15:19;26.00;99.90
36216;DHT22;22257;52.232;21.084;2022-07-05T10:17:59;26.10;99.90
36216;DHT22;22257;52.232;21.084;2022-07-05T10:20:42;26.10;99.90
36216;DHT22;22257;52.232;21.084;2022-07-05T10:23:14;26.10;99.90
36216;DHT22;22257;52.232;21.084;2022-07-05T10:25:46;26.30;99.90
36216;DHT22;22257;52.232;21.084;2022-07-05T10:28:10;26.60;99.90
36216;DHT22;22257;52.232;21.084;2022-07-05T10:30:37;26.10;99.90
36216;DHT22;22257;52.232;21.084;2022-07-05T10:33:06;26.20;99.90
36216;DHT22;22257;52.232;21.084;2022-07-05T10:35:32;26.20;99.90
36216;DHT22;22257;52.232;21.084;2022-07-05T10:37:59;26.20;99.90
36216;DHT22;22257;52.232;21.084;2022-07-05T10:40:29;26.40;99.90
36216;DHT22;22257;52.232;21.084;2022-07-05T10:42:59;26.40;99.90
36216;DHT22;22257;52.232;21.084;2022-07-05T10:45:50;26.20;99.90
36216;DHT22;22257;52.232;21.084;2022-07-05T10:48:23;26.30;99.90
36216;DHT22;22257;52.232;21.084;2022-07-05T10:53:27;26.60;99.90
36216;DHT22;22257;52.232;21.084;2022-07-05T11:06:39;26.90;99.90
36216;DHT22;22257;52.232;21.084;2022-07-05T11:11:36;26.50;99.90
36216;DHT22;22257;52.232;21.084;2022-07-05T11:14:05;26.70;99.90
36216;DHT22;22257;52.232;21.084;2022-07-05T11:16:34;26.70;99.90
36216;DHT22;22257;52.232;21.084;2022-07-05T11:19:07;26.50;99.90
36216;DHT22;22257;52.232;21.084;2022-07-05T11:21:34;26.40;99.90
36216;DHT22;22257;52.232;21.084;2022-07-05T11:24:22;26.40;99.90
36216;DHT22;22257;52.232;21.084;2022-07-05T11:26:50;26.40;99.90
36216;DHT22;22257;52.232;21.084;2022-07-05T11:29:49;26.60;99.90
36216;DHT22;22257;52.232;21.084;2022-07-05T11:34:53;26.90;99.90
36216;DHT22;22257;52.232;21.084;2022-07-05T11:37:24;27.10;99.90
36216;DHT22;22257;52.232;21.084;2022-07-05T11:42:39;26.90;99.90
36216;DHT22;22257;52.232;21.084;2022-07-05T11:45:09;26.90;99.90
36216;DHT22;22257;52.232;21.084;2022-07-05T11:47:35;27.00;99.90
36216;DHT22;22257;52.232;21.084;2022-07-05T11:50:02;27.20;99.90
36216;DHT22;22257;52.232;21.084;2022-07-05T11:52:30;27.40;99.90
36216;DHT22;22257;52.232;21.084;2022-07-05T11:54:57;27.30;99.90
36216;DHT22;22257;52.232;21.084;2022-07-05T11:57:23;27.40;99.90
36216;DHT22;22257;52.232;21.084;2022-07-05T11:59:50;27.10;99.90
36216;DHT22;22257;52.232;21.084;2022-07-05T12:02:17;27.00;99.90
36216;DHT22;22257;52.232;21.084;2022-07-05T12:04:48;26.90;99.90
36216;DHT22;22257;52.232;21.084;2022-07-05T12:07:36;26.60;99.90
36216;DHT22;22257;52.232;21.084;2022-07-05T12:10:01;26.00;99.90
36216;DHT22;22257;52.232;21.084;2022-07-05T12:12:46;26.10;99.90
36216;DHT22;22257;52.232;21.084;2022-07-05T12:15:19;26.20;99.90
36216;DHT22;22257;52.232;21.084;2022-07-05T12:17:47;26.20;99.90
36216;DHT22;22257;52.232;21.084;2022-07-05T12:20:20;25.90;99.90
36216;DHT22;22257;52.232;21.084;2022-07-05T12:22:45;26.10;99.90
36216;DHT22;22257;52.232;21.084;2022-07-05T12:25:14;26.20;99.90
36216;DHT22;22257;52.232;21.084;2022-07-05T12:27:42;26.00;99.90
36216;DHT22;22257;52.232;21.084;2022-07-05T12:30:10;26.20;99.90
36216;DHT22;22257;52.232;21.084;2022-07-05T12:32:57;26.30;99.90
36216;DHT22;22257;52.232;21.084;2022-07-05T12:35:34;26.40;99.90
36216;DHT22;22257;52.232;21.084;2022-07-05T12:38:14;25.80;99.90
36216;DHT22;22257;52.232;21.084;2022-07-05T12:40:39;26.00;99.90
36216;DHT22;22257;52.232;21.084;2022-07-05T12:43:17;26.20;99.90
36216;DHT22;22257;52.232;21.084;2022-07-05T12:45:42;26.30;99.90
36216;DHT22;22257;52.232;21.084;2022-07-05T12:48:10;26.40;99.90
36216;DHT22;22257;52.232;21.084;2022-07-05T12:50:48;26.30;99.90
36216;DHT22;22257;52.232;21.084;2022-07-05T12:53:15;26.10;99.90
36216;DHT22;22257;52.232;21.084;2022-07-05T12:56:04;26.00;99.90
36216;DHT22;22257;52.232;21.084;2022-07-05T12:59:00;25.90;99.90
36216;DHT22;22257;52.232;21.084;2022-07-05T13:01:32;25.80;99.90
36216;DHT22;22257;52.232;21.084;2022-07-05T13:04:11;25.90;99.90
36216;DHT22;22257;52.232;21.084;2022-07-05T13:06:49;25.90;99.90
36216;DHT22;22257;52.232;21.084;2022-07-05T13:12:17;25.50;99.90
36216;DHT22;22257;52.232;21.084;2022-07-05T13:14:47;25.50;99.90
36216;DHT22;22257;52.232;21.084;2022-07-05T13:17:15;25.40;99.90
36216;DHT22;22257;52.232;21.084;2022-07-05T13:19:43;25.20;99.90
36216;DHT22;22257;52.232;21.084;2022-07-05T13:22:09;25.10;99.90
36216;DHT22;22257;52.232;21.084;2022-07-05T13:24:36;25.00;99.90
36216;DHT22;22257;52.232;21.084;2022-07-05T13:27:04;25.00;99.90
36216;DHT22;22257;52.232;21.084;2022-07-05T13:29:30;25.10;99.90
36216;DHT22;22257;52.232;21.084;2022-07-05T13:31:57;25.10;99.90
36216;DHT22;22257;52.232;21.084;2022-07-05T13:34:23;25.10;99.90
36216;DHT22;22257;52.232;21.084;2022-07-05T13:36:50;24.90;99.90
36216;DHT22;22257;52.232;21.084;2022-07-05T13:39:20;24.80;99.90
36216;DHT22;22257;52.232;21.084;2022-07-05T13:41:47;24.70;99.90
36216;DHT22;22257;52.232;21.084;2022-07-05T13:44:14;24.70;99.90
36216;DHT22;22257;52.232;21.084;2022-07-05T13:46:40;24.60;99.90
36216;DHT22;22257;52.232;21.084;2022-07-05T13:49:06;24.50;99.90
36216;DHT22;22257;52.232;21.084;2022-07-05T13:51:33;24.40;99.90
36216;DHT22;22257;52.232;21.084;2022-07-05T13:53:59;24.30;99.90
36216;DHT22;22257;52.232;21.084;2022-07-05T13:56:25;24.20;99.90
36216;DHT22;22257;52.232;21.084;2022-07-05T13:58:53;24.20;99.90
36216;DHT22;22257;52.232;21.084;2022-07-05T14:01:20;24.10;99.90
36216;DHT22;22257;52.232;21.084;2022-07-05T14:03:48;24.10;99.90
36216;DHT22;22257;52.232;21.084;2022-07-05T14:06:14;24.00;99.90
36216;DHT22;22257;52.232;21.084;2022-07-05T14:08:40;24.00;99.90
36216;DHT22;22257;52.232;21.084;2022-07-05T14:11:08;23.90;99.90
36216;DHT22;22257;52.232;21.084;2022-07-05T14:13:35;23.90;99.90
36216;DHT22;22257;52.232;21.084;2022-07-05T14:16:02;23.80;99.90
36216;DHT22;22257;52.232;21.084;2022-07-05T14:18:28;23.60;99.90
36216;DHT22;22257;52.232;21.084;2022-07-05T14:20:54;23.50;99.90
36216;DHT22;22257;52.232;21.084;2022-07-05T14:23:20;23.30;99.90
36216;DHT22;22257;52.232;21.084;2022-07-05T14:25:47;23.10;99.90
36216;DHT22;22257;52.232;21.084;2022-07-05T14:28:13;22.90;99.90
36216;DHT22;22257;52.232;21.084;2022-07-05T14:30:42;22.40;99.90
36216;DHT22;22257;52.232;21.084;2022-07-05T14:33:09;22.00;99.90
36216;DHT22;22257;52.232;21.084;2022-07-05T14:35:36;21.80;99.90
36216;DHT22;22257;52.232;21.084;2022-07-05T14:38:02;21.40;99.90
36216;DHT22;22257;52.232;21.084;2022-07-05T14:40:29;21.30;99.90
36216;DHT22;22257;52.232;21.084;2022-07-05T14:42:57;21.10;99.90
36216;DHT22;22257;52.232;21.084;2022-07-05T14:45:24;21.00;99.90
36216;DHT22;22257;52.232;21.084;2022-07-05T14:47:52;20.90;99.90
36216;DHT22;22257;52.232;21.084;2022-07-05T14:50:19;20.90;99.90
36216;DHT22;22257;52.232;21.084;2022-07-05T14:52:46;20.70;99.90
36216;DHT22;22257;52.232;21.084;2022-07-05T14:55:13;20.70;99.90
36216;DHT22;22257;52.232;21.084;2022-07-05T14:57:40;20.60;99.90
36216;DHT22;22257;52.232;21.084;2022-07-05T15:00:12;20.50;99.90
36216;DHT22;22257;52.232;21.084;2022-07-05T15:02:39;20.30;99.90
36216;DHT22;22257;52.232;21.084;2022-07-05T15:05:06;20.20;99.90
36216;DHT22;22257;52.232;21.084;2022-07-05T15:07:34;20.30;99.90
36216;DHT22;22257;52.232;21.084;2022-07-05T15:10:01;20.20;99.90
36216;DHT22;22257;52.232;21.084;2022-07-05T15:12:27;20.10;99.90
36216;DHT22;22257;52.232;21.084;2022-07-05T15:14:53;19.70;99.90
36216;DHT22;22257;52.232;21.084;2022-07-05T15:17:19;19.50;99.90
36216;DHT22;22257;52.232;21.084;2022-07-05T15:19:45;19.50;99.90
36216;DHT22;22257;52.232;21.084;2022-07-05T15:22:12;19.50;99.90
36216;DHT22;22257;52.232;21.084;2022-07-05T15:24:38;19.60;99.90
36216;DHT22;22257;52.232;21.084;2022-07-05T15:27:05;19.60;99.90
36216;DHT22;22257;52.232;21.084;2022-07-05T15:29:31;19.70;99.90
36216;DHT22;22257;52.232;21.084;2022-07-05T15:31:58;19.70;99.90
36216;DHT22;22257;52.232;21.084;2022-07-05T15:34:24;19.70;99.90
36216;DHT22;22257;52.232;21.084;2022-07-05T15:36:52;19.70;99.90
36216;DHT22;22257;52.232;21.084;2022-07-05T15:39:18;19.70;99.90
36216;DHT22;22257;52.232;21.084;2022-07-05T15:41:44;19.70;99.90
36216;DHT22;22257;52.232;21.084;2022-07-05T15:44:10;19.70;99.90
36216;DHT22;22257;52.232;21.084;2022-07-05T15:46:36;19.60;99.90
36216;DHT22;22257;52.232;21.084;2022-07-05T15:49:21;19.50;99.90
36216;DHT22;22257;52.232;21.084;2022-07-05T15:51:47;19.40;99.90
36216;DHT22;22257;52.232;21.084;2022-07-05T15:54:13;19.30;99.90
36216;DHT22;22257;52.232;21.084;2022-07-05T15:56:39;19.20;99.90
36216;DHT22;22257;52.232;21.084;2022-07-05T15:59:07;19.10;99.90
36216;DHT22;22257;52.232;21.084;2022-07-05T16:01:33;19.00;99.90
36216;DHT22;22257;52.232;21.084;2022-07-05T16:03:59;18.90;99.90
36216;DHT22;22257;52.232;21.084;2022-07-05T16:06:25;18.80;99.90